Terminal Aerodrome Forecast
Issued by NWS

Home | Current Version | Previous Version | Text Only | Print | Product List | Glossary On
Versions: 1 2 3 4 5 6 7 8 9 10 11 12 13 14 15 16 17 18 19 20 21
000
FTUS43 KILX 272039 AAA
TAFBMI
TAF AMD
KBMI 272039Z 2721/2818 25015G20KT P6SM BKN018 OVC025
      TEMPO 2721/2724 OVC025
     FM280000 24011KT P6SM BKN030
      TEMPO 2801/2803 SCT035
     FM280300 VRB06KT P6SM SCT035 BKN110
     FM281300 15014KT P6SM VCSH OVC025=

USA.gov is the U.S. government's official web portal to all federal, state and local government web resources and services.